| Time | Avg. Air Temp | Dew Point | Avg. Rel Humidity | Avg. 2 Min Wind Speed | Max Gust Velocity | MGV Time | MGV Direction | Avg. Spot Wind Velocity |
|---|---|---|---|---|---|---|---|---|
| 2026-05-02 22:10:00 | 5° C | -6° C | 43% | 16 km/h | 19 km/h | 22:10:00 | NW | 16 km/h |
| 21:10:00 | 5° C | -6° C | 42% | 15 km/h | 17 km/h | 21:09:00 | NW | 15 km/h |
| 20:10:00 | 6° C | -6° C | 42% | 11 km/h | 13 km/h | 20:07:00 | NW | 11 km/h |
| 19:10:00 | 6° C | -6° C | 43% | 7 km/h | 11 km/h | 19:06:00 | N | 7 km/h |
| 18:10:00 | 6° C | -5° C | 44% | 11 km/h | 18 km/h | 18:10:00 | NE | 9 km/h |
| 17:10:00 | 6° C | -5° C | 45% | 7 km/h | 12 km/h | 17:07:00 | W | 7 km/h |
| 16:10:00 | 6° C | -5° C | 47% | 12 km/h | 22 km/h | 16:09:00 | NE | 8 km/h |
| 15:10:00 | 5° C | -5° C | 47% | 7 km/h | 20 km/h | 15:06:00 | NW | 10 km/h |
| 14:10:00 | 5° C | -4° C | 50% | 7 km/h | 22 km/h | 14:07:00 | NW | 9 km/h |
| 13:10:00 | 4° C | -5° C | 52% | 9 km/h | 13 km/h | 13:10:00 | NW | 7 km/h |
| 12:10:00 | 4° C | -4° C | 54% | 6 km/h | 18 km/h | 12:06:00 | NW | 7 km/h |
| 11:10:00 | 4° C | -4° C | 58% | 13 km/h | 16 km/h | 11:10:00 | NW | 9 km/h |
| 10:10:00 | 3° C | -3° C | 60% | 8 km/h | 13 km/h | 10:06:00 | NW | 10 km/h |
| 09:10:00 | 4° C | -3° C | 61% | 3 km/h | 9 km/h | 09:06:00 | NE | 4 km/h |
| 08:10:00 | 3° C | -3° C | 63% | 2 km/h | 7 km/h | 08:10:00 | NW | 3 km/h |
| 07:10:00 | 3° C | -3° C | 63% | 15 km/h | 16 km/h | 07:07:00 | NW | 16 km/h |
| 06:10:00 | 3° C | -3° C | 64% | 12 km/h | 15 km/h | 06:10:00 | W | 12 km/h |
| 05:10:00 | 4° C | -4° C | 59% | 12 km/h | 14 km/h | 05:06:00 | NW | 13 km/h |
| 04:10:00 | 4° C | -3° C | 62% | 10 km/h | 11 km/h | 04:10:00 | NW | 9 km/h |
| 03:10:00 | 4° C | -3° C | 64% | 8 km/h | 9 km/h | 03:06:00 | SW | 8 km/h |
| 02:10:00 | 4° C | -3° C | 64% | 9 km/h | 9 km/h | 02:06:00 | SW | 9 km/h |
| 01:10:00 | 4° C | -2° C | 65% | 9 km/h | 9 km/h | 01:10:00 | SW | 9 km/h |
| 00:10:00 | 4° C | -3° C | 62% | 7 km/h | 8 km/h | 00:07:00 | SW | 7 km/h |
| 23:10:00 | 4° C | -4° C | 58% | 4 km/h | 5 km/h | 23:08:00 | W | 5 km/h |
Subpeak Weather
| Time | Avg. Air Temp | Dew Point | Avg. Rel Humidity | Avg. 2 Min Wind Speed | Max Gust Velocity | MGV Time | MGV Direction | Avg. Spot Wind Velocity |
|---|---|---|---|---|---|---|---|---|
| 2026-05-02 22:10:00 | 5° C | -6° C | 43% | 16 km/h | 19 km/h | 22:10:00 | NW | 16 km/h |
| 22:05:00 | 5° C | -6° C | 43% | 16 km/h | 20 km/h | 22:01:00 | NW | 17 km/h |
| 22:00:00 | 5° C | -6° C | 43% | 17 km/h | 21 km/h | 21:57:00 | NW | 18 km/h |
| 21:55:00 | 5° C | -6° C | 43% | 19 km/h | 21 km/h | 21:54:00 | NW | 19 km/h |
| 21:50:00 | 5° C | -6° C | 43% | 15 km/h | 18 km/h | 21:46:00 | NW | 15 km/h |
| 21:45:00 | 5° C | -6° C | 42% | 14 km/h | 21 km/h | 21:41:00 | NW | 15 km/h |
| 21:40:00 | 5° C | -6° C | 42% | 22 km/h | 25 km/h | 21:38:00 | NW | 21 km/h |
| 21:35:00 | 5° C | -6° C | 42% | 19 km/h | 22 km/h | 21:35:00 | NW | 18 km/h |
| 21:30:00 | 5° C | -7° C | 42% | 18 km/h | 20 km/h | 21:29:00 | NW | 17 km/h |
| 21:25:00 | 5° C | -6° C | 43% | 18 km/h | 20 km/h | 21:24:00 | NW | 17 km/h |
| 21:20:00 | 5° C | -6° C | 43% | 14 km/h | 21 km/h | 21:18:00 | NW | 16 km/h |
| 21:15:00 | 5° C | -6° C | 43% | 18 km/h | 19 km/h | 21:15:00 | NW | 16 km/h |
| 21:10:00 | 5° C | -6° C | 42% | 15 km/h | 17 km/h | 21:09:00 | NW | 15 km/h |




